createdAt,value
2019-01-27T00:00:21.717Z,-4.60
2019-01-27T00:02:51.880Z,-4.50
2019-01-27T00:05:21.791Z,-4.60
2019-01-27T00:07:51.684Z,-4.70
2019-01-27T00:10:21.605Z,-4.70
2019-01-27T00:12:51.565Z,-4.70
2019-01-27T00:15:21.542Z,-4.70
2019-01-27T00:17:51.857Z,-4.70
2019-01-27T00:20:22.634Z,-4.70
2019-01-27T00:22:52.536Z,-4.70
2019-01-27T00:25:22.588Z,-4.70
2019-01-27T00:27:52.471Z,-4.70
2019-01-27T00:30:23.631Z,-4.80
2019-01-27T00:32:53.919Z,-4.80
2019-01-27T00:35:23.826Z,-4.80
2019-01-27T00:37:53.791Z,-4.80
2019-01-27T00:40:23.702Z,-4.80
2019-01-27T00:42:53.760Z,-4.70
2019-01-27T00:45:24.104Z,-4.80
2019-01-27T00:47:54.390Z,-4.80
2019-01-27T00:50:24.235Z,-4.80
2019-01-27T00:52:54.202Z,-4.80
2019-01-27T00:55:24.159Z,-4.80
2019-01-27T00:57:54.154Z,-4.80
2019-01-27T01:00:25.653Z,-4.80
2019-01-27T01:02:55.975Z,-4.80
2019-01-27T01:05:26.216Z,-4.80
2019-01-27T01:07:56.352Z,-4.80
2019-01-27T01:10:26.387Z,-4.80
2019-01-27T01:12:56.250Z,-4.80
2019-01-27T01:15:26.637Z,-4.80
2019-01-27T01:17:56.936Z,-4.80
2019-01-27T01:20:26.805Z,-4.80
2019-01-27T01:22:56.776Z,-4.90
2019-01-27T01:25:26.798Z,-4.90
2019-01-27T01:27:56.682Z,-4.90
2019-01-27T01:30:28.422Z,-4.90
2019-01-27T01:32:59.141Z,-4.90
2019-01-27T01:35:29.249Z,-4.90
2019-01-27T01:37:59.138Z,-4.90
2019-01-27T01:40:29.056Z,-4.90
2019-01-27T01:42:58.914Z,-4.90
2019-01-27T01:45:31.687Z,-4.90
2019-01-27T01:48:02.275Z,-4.90
2019-01-27T01:50:32.161Z,-4.90
2019-01-27T01:53:02.052Z,-4.90
2019-01-27T01:55:31.970Z,-4.90
2019-01-27T01:58:01.854Z,-4.90
2019-01-27T02:00:32.075Z,-4.90
2019-01-27T02:03:02.338Z,-4.90
2019-01-27T02:05:32.211Z,-4.90
2019-01-27T02:08:02.434Z,-4.90
2019-01-27T02:10:32.341Z,-5.00
2019-01-27T02:13:02.488Z,-5.00
2019-01-27T02:16:04.631Z,-5.00
2019-01-27T02:18:34.867Z,-5.00
2019-01-27T02:21:05.619Z,-5.00
2019-01-27T02:23:35.867Z,-5.00
2019-01-27T02:26:07.309Z,-5.00
2019-01-27T02:28:37.408Z,-5.00
2019-01-27T02:31:07.996Z,-5.00
2019-01-27T02:33:38.438Z,-5.00
2019-01-27T02:36:08.276Z,-5.00
2019-01-27T02:38:38.375Z,-5.00
2019-01-27T02:41:08.417Z,-5.10
2019-01-27T02:43:38.374Z,-5.00
2019-01-27T02:46:09.085Z,-5.10
2019-01-27T02:48:39.485Z,-5.10
2019-01-27T02:51:09.369Z,-5.10
2019-01-27T02:53:39.340Z,-5.10
2019-01-27T02:56:09.237Z,-5.10
2019-01-27T02:58:39.089Z,-5.10
2019-01-27T03:01:09.117Z,-5.10
2019-01-27T03:03:39.501Z,-5.20
2019-01-27T03:06:26.983Z,-5.20
2019-01-27T03:09:05.654Z,-5.20
2019-01-27T03:11:51.651Z,-5.20
2019-01-27T03:14:22.297Z,-5.20
2019-01-27T03:16:53.740Z,-5.20
2019-01-27T03:19:24.251Z,-5.10
2019-01-27T03:21:54.116Z,-5.20
2019-01-27T03:24:23.992Z,-5.20
2019-01-27T03:26:53.932Z,-5.20
2019-01-27T03:29:23.801Z,-5.30
2019-01-27T03:31:53.740Z,-5.30
2019-01-27T03:34:24.086Z,-5.30
2019-01-27T03:36:54.086Z,-5.30
2019-01-27T03:39:23.979Z,-5.30
2019-01-27T03:41:54.095Z,-5.30
2019-01-27T03:44:23.968Z,-5.30
2019-01-27T03:46:54.266Z,-5.30
2019-01-27T03:49:24.564Z,-5.30
2019-01-27T03:51:54.469Z,-5.30
2019-01-27T03:54:24.370Z,-5.40
2019-01-27T03:56:54.280Z,-5.40
2019-01-27T03:59:24.143Z,-5.40
2019-01-27T04:01:53.983Z,-5.40
2019-01-27T04:04:24.304Z,-5.40
2019-01-27T04:06:54.343Z,-5.50
2019-01-27T04:09:24.178Z,-5.40
2019-01-27T04:11:54.071Z,-5.40
2019-01-27T04:14:23.961Z,-5.40
2019-01-27T04:16:53.917Z,-5.40
2019-01-27T04:19:23.859Z,-5.40
2019-01-27T04:21:53.767Z,-5.40
2019-01-27T04:24:23.603Z,-5.50
2019-01-27T04:26:53.484Z,-5.50
2019-01-27T04:29:23.412Z,-5.50
2019-01-27T04:31:53.306Z,-5.50
2019-01-27T04:34:23.244Z,-5.50
2019-01-27T04:36:53.138Z,-5.50
2019-01-27T04:39:23.007Z,-5.50
2019-01-27T04:41:52.961Z,-5.50
2019-01-27T04:44:22.819Z,-5.60
2019-01-27T04:46:52.704Z,-5.60
2019-01-27T04:49:22.660Z,-5.60
2019-01-27T04:51:52.962Z,-5.60
2019-01-27T04:54:22.854Z,-5.60
2019-01-27T04:56:52.783Z,-5.60
2019-01-27T04:59:22.670Z,-5.60
2019-01-27T05:01:52.522Z,-5.60
2019-01-27T05:04:42.345Z,-5.60
2019-01-27T05:07:12.676Z,-5.60
2019-01-27T05:09:42.544Z,-5.60
2019-01-27T05:12:12.470Z,-5.60
2019-01-27T05:14:42.351Z,-5.60
2019-01-27T05:17:12.394Z,-5.60
2019-01-27T05:19:42.320Z,-5.60
2019-01-27T05:22:12.610Z,-5.60
2019-01-27T05:24:42.453Z,-5.60
2019-01-27T05:27:12.352Z,-5.70
2019-01-27T05:29:42.266Z,-5.70
2019-01-27T05:32:12.131Z,-5.70
2019-01-27T05:34:42.152Z,-5.70
2019-01-27T05:37:12.312Z,-5.70
2019-01-27T05:39:42.213Z,-5.70
2019-01-27T05:42:12.122Z,-5.70
2019-01-27T05:44:42.028Z,-5.70
2019-01-27T05:47:11.903Z,-5.70
2019-01-27T05:49:41.805Z,-5.70
2019-01-27T05:52:11.972Z,-5.70
2019-01-27T05:54:41.823Z,-5.70
2019-01-27T05:57:11.736Z,-5.70
2019-01-27T05:59:41.681Z,-5.70
2019-01-27T06:02:11.561Z,-5.70
2019-01-27T06:04:41.491Z,-5.70
2019-01-27T06:07:11.337Z,-5.70
2019-01-27T06:09:41.506Z,-5.70
2019-01-27T06:12:11.683Z,-5.70
2019-01-27T06:14:41.524Z,-5.70
2019-01-27T06:17:11.450Z,-5.70
2019-01-27T06:19:41.354Z,-5.70
2019-01-27T06:22:11.199Z,-5.70
2019-01-27T06:24:41.613Z,-5.70
2019-01-27T06:27:11.550Z,-5.70
2019-01-27T06:29:41.426Z,-5.70
2019-01-27T06:32:12.847Z,-5.70
2019-01-27T06:34:42.964Z,-5.70
2019-01-27T06:37:12.831Z,-5.70
2019-01-27T06:39:43.087Z,-5.70
2019-01-27T06:42:13.042Z,-5.70
2019-01-27T06:44:42.936Z,-5.70
2019-01-27T06:47:13.040Z,-5.70
2019-01-27T06:49:42.973Z,-5.70
2019-01-27T06:52:13.196Z,-5.70
2019-01-27T06:54:43.680Z,-5.70
2019-01-27T06:57:13.675Z,-5.70
2019-01-27T06:59:57.676Z,-5.70
2019-01-27T07:02:46.524Z,-5.70
2019-01-27T07:05:24.327Z,-5.70
2019-01-27T07:08:05.431Z,-5.70
2019-01-27T07:10:53.401Z,-5.70
2019-01-27T07:13:46.597Z,-5.70
2019-01-27T07:16:29.352Z,-5.70
2019-01-27T07:19:27.437Z,-5.80
2019-01-27T07:22:16.149Z,-5.80
2019-01-27T07:25:04.887Z,-5.80
2019-01-27T07:27:53.735Z,-5.80
2019-01-27T07:30:43.134Z,-5.80
2019-01-27T07:33:34.869Z,-5.80
2019-01-27T07:36:23.230Z,-5.80
2019-01-27T07:39:11.967Z,-5.80
2019-01-27T07:42:03.703Z,-5.90
2019-01-27T07:44:55.479Z,-5.80
2019-01-27T07:47:30.801Z,-5.90
2019-01-27T07:50:28.940Z,-5.90
2019-01-27T07:53:24.124Z,-5.90
2019-01-27T07:56:25.167Z,-5.90
2019-01-27T07:59:13.955Z,-5.90
2019-01-27T08:02:01.635Z,-5.90
2019-01-27T08:04:53.289Z,-5.90
2019-01-27T08:07:51.379Z,-5.80
2019-01-27T08:10:52.954Z,-5.80
2019-01-27T08:13:40.453Z,-5.80
2019-01-27T08:16:24.653Z,-5.80
2019-01-27T08:19:00.753Z,-5.80
2019-01-27T08:21:49.617Z,-5.80
2019-01-27T08:24:32.312Z,-5.80
2019-01-27T08:27:12.169Z,-5.70
2019-01-27T08:30:00.863Z,-5.70
2019-01-27T08:32:38.216Z,-5.70
2019-01-27T08:35:30.615Z,-5.70
2019-01-27T08:38:25.374Z,-5.70
2019-01-27T08:41:16.903Z,-5.60
2019-01-27T08:44:00.447Z,-5.70
2019-01-27T08:46:37.856Z,-5.60
2019-01-27T08:49:07.821Z,-5.60
2019-01-27T08:51:37.673Z,-5.60
2019-01-27T08:54:07.947Z,-5.60
2019-01-27T08:56:37.898Z,-5.60
2019-01-27T08:59:07.973Z,-5.60
2019-01-27T09:02:04.326Z,-5.60
2019-01-27T09:04:53.034Z,-5.60
2019-01-27T09:07:50.987Z,-5.60
2019-01-27T09:10:52.006Z,-5.50
2019-01-27T09:13:43.854Z,-5.50
2019-01-27T09:16:47.699Z,-5.50
2019-01-27T09:19:45.807Z,-5.50
2019-01-27T09:22:25.379Z,-5.50
2019-01-27T09:25:12.766Z,-5.40
2019-01-27T09:28:03.504Z,-5.40
2019-01-27T09:30:58.177Z,-5.40
2019-01-27T09:34:01.908Z,-5.40
2019-01-27T09:36:53.830Z,-5.30
2019-01-27T09:39:44.264Z,-5.30
2019-01-27T09:42:31.642Z,-5.30
2019-01-27T09:45:20.280Z,-5.30
2019-01-27T09:48:08.960Z,-5.30
2019-01-27T09:51:00.917Z,-5.30
2019-01-27T09:53:43.145Z,-5.30
2019-01-27T09:56:43.961Z,-5.30
2019-01-27T09:59:34.487Z,-5.30
2019-01-27T10:02:38.931Z,-5.30
2019-01-27T10:05:34.072Z,-5.30
2019-01-27T10:08:16.940Z,-5.30
2019-01-27T10:11:01.006Z,-5.30
2019-01-27T10:13:48.232Z,-5.30
2019-01-27T10:16:44.677Z,-5.20
2019-01-27T10:19:33.822Z,-5.20
2019-01-27T10:22:10.225Z,-5.20
2019-01-27T10:24:57.590Z,-5.10
2019-01-27T10:27:34.172Z,-5.10
2019-01-27T10:30:33.307Z,-5.20
2019-01-27T10:33:10.697Z,-5.20
2019-01-27T10:35:56.586Z,-5.10
2019-01-27T10:38:54.716Z,-5.20
2019-01-27T10:41:32.947Z,-5.10
2019-01-27T10:44:24.563Z,-5.10
2019-01-27T10:47:09.769Z,-5.20
2019-01-27T10:49:55.133Z,-5.20
2019-01-27T10:52:33.097Z,-5.20
2019-01-27T10:55:12.363Z,-5.20
2019-01-27T10:57:58.742Z,-5.30
2019-01-27T11:00:47.631Z,-5.30
2019-01-27T11:03:36.366Z,-5.20
2019-01-27T11:06:28.420Z,-5.30
2019-01-27T11:09:16.747Z,-5.20
2019-01-27T11:12:05.661Z,-5.20
2019-01-27T11:14:57.560Z,-5.20
2019-01-27T11:17:55.654Z,-5.20
2019-01-27T11:20:56.280Z,-5.20
2019-01-27T11:24:00.513Z,-5.10
2019-01-27T11:26:48.174Z,-5.00
2019-01-27T11:29:48.944Z,-5.00
2019-01-27T11:32:36.604Z,-5.10
2019-01-27T11:35:27.051Z,-5.00
2019-01-27T11:38:12.041Z,-5.00
2019-01-27T11:40:55.724Z,-5.00
2019-01-27T11:43:44.831Z,-5.20
2019-01-27T11:46:20.184Z,-5.20
2019-01-27T11:49:21.285Z,-5.20
2019-01-27T11:52:15.612Z,-5.30
2019-01-27T11:54:44.612Z,-5.30
2019-01-27T11:57:14.782Z,-5.30
2019-01-27T11:59:44.707Z,-5.20
2019-01-27T12:02:14.571Z,-5.20
2019-01-27T12:04:44.589Z,-5.20
2019-01-27T12:07:14.523Z,-5.20
2019-01-27T12:09:44.419Z,-5.10
2019-01-27T12:12:14.649Z,-5.10
2019-01-27T12:14:44.605Z,-5.10
2019-01-27T12:17:14.775Z,-5.10
2019-01-27T12:19:44.642Z,-5.00
2019-01-27T12:22:14.586Z,-5.00
2019-01-27T12:24:44.907Z,-5.10
2019-01-27T12:27:15.183Z,-5.00
2019-01-27T12:29:45.083Z,-5.00
2019-01-27T12:32:14.978Z,-5.00
2019-01-27T12:34:44.897Z,-4.90
2019-01-27T12:37:14.799Z,-4.90
2019-01-27T12:39:44.680Z,-4.90
2019-01-27T12:42:15.022Z,-4.80
2019-01-27T12:44:44.942Z,-4.80
2019-01-27T12:47:14.791Z,-4.90
2019-01-27T12:49:44.705Z,-4.90
2019-01-27T12:52:14.618Z,-4.90
2019-01-27T12:54:44.479Z,-4.90
2019-01-27T12:57:14.425Z,-5.00
2019-01-27T12:59:44.796Z,-4.90
2019-01-27T13:02:14.739Z,-5.00
2019-01-27T13:04:44.626Z,-4.90
2019-01-27T13:07:14.554Z,-4.80
2019-01-27T13:09:44.433Z,-4.80
2019-01-27T13:12:14.330Z,-4.80
2019-01-27T13:14:44.587Z,-4.80
2019-01-27T13:17:14.488Z,-4.90
2019-01-27T13:19:44.392Z,-4.90
2019-01-27T13:22:14.308Z,-4.90
2019-01-27T13:24:44.208Z,-4.80
2019-01-27T13:27:14.093Z,-4.80
2019-01-27T13:29:44.447Z,-4.70
2019-01-27T13:32:14.305Z,-4.90
2019-01-27T13:34:44.260Z,-4.90
2019-01-27T13:37:14.160Z,-5.00
2019-01-27T13:39:44.062Z,-4.90
2019-01-27T13:42:13.965Z,-4.90
2019-01-27T13:44:44.121Z,-4.90
2019-01-27T13:47:14.010Z,-4.90
2019-01-27T13:49:43.925Z,-4.90
2019-01-27T13:52:14.090Z,-4.90
2019-01-27T13:54:43.954Z,-5.00
2019-01-27T13:57:13.823Z,-4.90
2019-01-27T13:59:43.958Z,-4.90
2019-01-27T14:02:13.941Z,-4.90
2019-01-27T14:04:48.477Z,-4.90
2019-01-27T14:07:15.529Z,-4.90
2019-01-27T14:09:45.428Z,-4.90
2019-01-27T14:12:15.315Z,-4.90
2019-01-27T14:14:45.243Z,-5.00
2019-01-27T14:17:15.664Z,-5.00
2019-01-27T14:19:45.542Z,-4.90
2019-01-27T14:22:15.463Z,-4.90
2019-01-27T14:24:45.365Z,-5.00
2019-01-27T14:27:15.251Z,-5.20
2019-01-27T14:29:45.133Z,-5.20
2019-01-27T14:32:15.290Z,-5.20
2019-01-27T14:34:45.720Z,-5.20
2019-01-27T14:37:15.592Z,-5.20
2019-01-27T14:39:45.504Z,-5.30
2019-01-27T14:42:15.476Z,-5.30
2019-01-27T14:44:45.465Z,-5.30
2019-01-27T14:47:15.599Z,-5.40
2019-01-27T14:49:45.558Z,-5.40
2019-01-27T14:52:15.533Z,-5.40
2019-01-27T14:54:45.415Z,-5.50
2019-01-27T14:57:15.371Z,-5.40
2019-01-27T14:59:45.313Z,-5.40
2019-01-27T15:02:15.481Z,-5.50
2019-01-27T15:04:45.376Z,-5.50
2019-01-27T15:07:15.499Z,-5.50
2019-01-27T15:09:45.398Z,-5.50
2019-01-27T15:12:15.390Z,-5.50
2019-01-27T15:14:45.292Z,-5.50
2019-01-27T15:17:15.697Z,-5.50
2019-01-27T15:19:45.627Z,-5.50
2019-01-27T15:22:15.540Z,-5.50
2019-01-27T15:24:45.394Z,-5.50
2019-01-27T15:27:15.446Z,-5.50
2019-01-27T15:29:45.411Z,-5.50
2019-01-27T15:32:15.563Z,-5.40
2019-01-27T15:34:45.855Z,-5.40
2019-01-27T15:37:15.786Z,-5.40
2019-01-27T15:39:45.672Z,-5.40
2019-01-27T15:42:15.935Z,-5.40
2019-01-27T15:44:45.834Z,-5.40
2019-01-27T15:47:15.728Z,-5.40
2019-01-27T15:49:46.045Z,-5.40
2019-01-27T15:52:15.978Z,-5.40
2019-01-27T15:54:45.975Z,-5.40
2019-01-27T15:57:16.056Z,-5.30
2019-01-27T15:59:46.083Z,-5.40
2019-01-27T16:02:15.957Z,-5.40
2019-01-27T16:04:46.488Z,-5.40
2019-01-27T16:07:16.393Z,-5.40
2019-01-27T16:09:46.245Z,-5.40
2019-01-27T16:12:16.306Z,-5.40
2019-01-27T16:14:46.212Z,-5.40
2019-01-27T16:17:16.330Z,-5.40
2019-01-27T16:19:46.673Z,-5.40
2019-01-27T16:22:16.600Z,-5.40
2019-01-27T16:24:46.489Z,-5.40
2019-01-27T16:27:16.391Z,-5.40
2019-01-27T16:30:05.534Z,-5.40
2019-01-27T16:32:37.917Z,-5.40
2019-01-27T16:35:13.458Z,-5.50
2019-01-27T16:37:43.364Z,-5.50
2019-01-27T16:40:15.863Z,-5.50
2019-01-27T16:42:45.796Z,-5.50
2019-01-27T16:45:17.376Z,-5.50
2019-01-27T16:47:47.338Z,-5.30
2019-01-27T16:50:17.925Z,-5.30
2019-01-27T16:52:48.023Z,-5.30
2019-01-27T16:55:18.332Z,-5.30
2019-01-27T16:57:48.434Z,-5.20
2019-01-27T17:00:21.826Z,-5.20
2019-01-27T17:02:54.110Z,-5.10
2019-01-27T17:05:24.437Z,-5.20
2019-01-27T17:07:54.779Z,-5.20
2019-01-27T17:10:26.589Z,-5.20
2019-01-27T17:12:57.668Z,-5.20
2019-01-27T17:15:27.673Z,-5.20
2019-01-27T17:17:58.451Z,-5.20
2019-01-27T17:20:28.597Z,-5.30
2019-01-27T17:22:58.510Z,-5.20
2019-01-27T17:25:28.475Z,-5.20
2019-01-27T17:27:58.545Z,-5.20
2019-01-27T17:30:29.819Z,-5.20
2019-01-27T17:32:59.756Z,-5.30
2019-01-27T17:35:30.147Z,-5.30
2019-01-27T17:38:00.056Z,-5.20
2019-01-27T17:40:29.950Z,-5.20
2019-01-27T17:42:59.863Z,-5.20
2019-01-27T17:45:29.977Z,-5.20
2019-01-27T17:47:59.937Z,-5.20
2019-01-27T17:50:30.657Z,-5.20
2019-01-27T17:53:03.062Z,-5.20
2019-01-27T17:55:39.334Z,-5.20
2019-01-27T17:58:31.236Z,-5.20
2019-01-27T18:01:29.092Z,-5.20
2019-01-27T18:04:30.128Z,-5.20
2019-01-27T18:07:05.545Z,-5.10
2019-01-27T18:10:00.294Z,-5.10
2019-01-27T18:12:38.452Z,-5.10
2019-01-27T18:15:09.732Z,-5.10
2019-01-27T18:17:41.667Z,-5.10
2019-01-27T18:20:14.141Z,-5.10
2019-01-27T18:22:44.323Z,-5.10
2019-01-27T18:25:15.195Z,-5.10
2019-01-27T18:27:45.277Z,-5.20
2019-01-27T18:30:21.069Z,-5.20
2019-01-27T18:32:51.158Z,-5.20
2019-01-27T18:35:21.631Z,-5.10
2019-01-27T18:37:52.586Z,-5.10
2019-01-27T18:40:22.540Z,-5.10
2019-01-27T18:42:52.416Z,-5.10
2019-01-27T18:45:22.516Z,-5.10
2019-01-27T18:47:53.437Z,-5.10
2019-01-27T18:50:23.949Z,-5.10
2019-01-27T18:53:13.322Z,-5.10
2019-01-27T18:55:54.361Z,-5.10
2019-01-27T18:58:55.241Z,-5.10
2019-01-27T19:01:49.856Z,-5.10
2019-01-27T19:04:34.022Z,-5.10
2019-01-27T19:07:25.649Z,-5.10
2019-01-27T19:10:13.575Z,-5.10
2019-01-27T19:12:57.018Z,-5.10
2019-01-27T19:15:57.942Z,-5.20
2019-01-27T19:18:45.657Z,-5.20
2019-01-27T19:21:24.216Z,-5.20
2019-01-27T19:24:16.242Z,-5.20
2019-01-27T19:27:03.942Z,-5.20
2019-01-27T19:29:46.819Z,-5.10
2019-01-27T19:32:24.216Z,-5.10
2019-01-27T19:35:11.377Z,-5.10
2019-01-27T19:37:48.368Z,-5.10
2019-01-27T19:40:34.053Z,-5.10
2019-01-27T19:43:21.627Z,-5.10
2019-01-27T19:46:22.226Z,-5.10
2019-01-27T19:49:04.960Z,-5.10
2019-01-27T19:52:02.771Z,-5.10
2019-01-27T19:54:51.570Z,-5.10
2019-01-27T19:57:43.029Z,-5.10
2019-01-27T20:00:25.389Z,-5.10
2019-01-27T20:03:14.113Z,-5.10
2019-01-27T20:05:51.768Z,-5.00
2019-01-27T20:08:41.198Z,-5.00
2019-01-27T20:11:29.135Z,-5.10
2019-01-27T20:14:24.153Z,-5.00
2019-01-27T20:17:09.793Z,-5.00
2019-01-27T20:20:01.800Z,-5.00
2019-01-27T20:22:49.757Z,-5.00
2019-01-27T20:25:41.480Z,-5.00
2019-01-27T20:28:45.751Z,-5.00
2019-01-27T20:31:28.139Z,-5.00
2019-01-27T20:34:12.449Z,-4.90
2019-01-27T20:37:04.229Z,-4.90
2019-01-27T20:39:49.676Z,-4.90
2019-01-27T20:42:35.614Z,-4.90
2019-01-27T20:45:20.406Z,-4.90
2019-01-27T20:48:06.893Z,-4.80
2019-01-27T20:50:55.711Z,-4.90
2019-01-27T20:53:33.084Z,-4.90
2019-01-27T20:56:11.951Z,-4.90
2019-01-27T20:58:56.000Z,-4.90
2019-01-27T21:02:00.037Z,-4.90
2019-01-27T21:04:37.492Z,-4.90
2019-01-27T21:07:29.424Z,-4.90
2019-01-27T21:10:32.515Z,-4.80
2019-01-27T21:13:11.808Z,-4.80
2019-01-27T21:15:49.060Z,-4.80
2019-01-27T21:18:43.899Z,-4.80
2019-01-27T21:21:15.680Z,-4.80
2019-01-27T21:23:46.618Z,-4.80
2019-01-27T21:26:16.698Z,-4.90
2019-01-27T21:28:46.624Z,-4.90
2019-01-27T21:31:16.499Z,-4.80
2019-01-27T21:33:47.694Z,-4.90
2019-01-27T21:36:17.820Z,-4.90
2019-01-27T21:38:47.719Z,-4.90
2019-01-27T21:41:17.657Z,-4.90
2019-01-27T21:43:47.558Z,-4.90
2019-01-27T21:46:17.577Z,-4.90
2019-01-27T21:48:47.509Z,-4.90
2019-01-27T21:51:17.404Z,-4.90
2019-01-27T21:53:47.278Z,-4.90
2019-01-27T21:56:17.445Z,-4.90
2019-01-27T21:58:47.289Z,-4.90
2019-01-27T22:01:17.286Z,-4.90
2019-01-27T22:03:47.232Z,-4.90
2019-01-27T22:06:17.102Z,-5.00
2019-01-27T22:08:46.963Z,-5.00
2019-01-27T22:11:16.912Z,-4.90
2019-01-27T22:13:46.826Z,-4.90
2019-01-27T22:16:19.254Z,-4.90
2019-01-27T22:18:49.583Z,-4.90
2019-01-27T22:21:19.567Z,-4.90
2019-01-27T22:23:49.799Z,-4.90
2019-01-27T22:26:19.701Z,-4.90
2019-01-27T22:28:49.589Z,-4.90
2019-01-27T22:31:19.564Z,-4.90
2019-01-27T22:33:49.922Z,-4.90
2019-01-27T22:36:20.147Z,-4.90
2019-01-27T22:38:50.068Z,-4.90
2019-01-27T22:41:19.996Z,-4.90
2019-01-27T22:43:49.847Z,-4.90
2019-01-27T22:46:19.840Z,-4.90
2019-01-27T22:48:50.277Z,-4.90
2019-01-27T22:51:20.132Z,-4.90
2019-01-27T22:53:50.017Z,-4.90
2019-01-27T22:56:19.978Z,-4.90
2019-01-27T22:58:49.843Z,-4.90
2019-01-27T23:01:20.905Z,-4.90
2019-01-27T23:03:53.621Z,-4.90
2019-01-27T23:06:23.615Z,-4.90
2019-01-27T23:08:53.564Z,-4.90
2019-01-27T23:11:23.507Z,-4.90
2019-01-27T23:13:53.388Z,-4.90
2019-01-27T23:16:23.256Z,-4.90
2019-01-27T23:18:53.578Z,-4.80
2019-01-27T23:21:23.476Z,-4.80
2019-01-27T23:23:53.803Z,-4.80
2019-01-27T23:26:23.773Z,-4.80
2019-01-27T23:28:53.643Z,-4.80
2019-01-27T23:31:23.528Z,-4.80
2019-01-27T23:33:53.886Z,-4.80
2019-01-27T23:36:23.747Z,-4.80
2019-01-27T23:38:53.627Z,-4.80
2019-01-27T23:41:23.570Z,-4.80
2019-01-27T23:43:53.488Z,-4.80
2019-01-27T23:46:23.437Z,-4.80
2019-01-27T23:48:53.384Z,-4.70
2019-01-27T23:51:23.501Z,-4.70
2019-01-27T23:53:53.377Z,-4.70
2019-01-27T23:56:23.427Z,-4.70
2019-01-27T23:58:53.316Z,-4.70
